Time;durP1;ratioP1;P1;durP2;ratioP2;P2;SDS_P1;SDS_P2;PMS_P1;PMS_P2;Temp;Humidity;BMP_temperature;BMP_pressure;BME280_temperature;BME280_humidity;BME280_pressure;Samples;Min_cycle;Max_cycle;Signal;HPM_P1;HPM_P2
2022/08/20 00:00:40;;;;;;;10.68;5.50;;;;;;;22.39;60.06;98588.39;1750160;80;21556;-82
2022/08/20 00:03:15;;;;;;;8.58;4.65;;;;;;;22.31;61.98;98585.05;1769581;81;21071;-81
2022/08/20 00:05:51;;;;;;;9.38;5.12;;;;;;;22.23;60.69;98587.45;1770366;81;21573;-81
2022/08/20 00:08:18;;;;;;;9.30;5.40;;;;;;;22.11;61.50;98581.83;1783805;80;20997;-81
2022/08/20 00:10:47;;;;;;;15.53;5.17;;;;;;;22.01;62.12;98577.27;1783719;80;21035;-81
2022/08/20 00:13:28;;;;;;;9.95;5.00;;;;;;;21.92;61.50;98580.64;1783835;79;21525;-81
2022/08/20 00:15:57;;;;;;;8.38;5.10;;;;;;;21.81;62.34;98588.62;1783640;80;21490;-81
2022/08/20 00:18:24;;;;;;;11.38;4.78;;;;;;;21.71;62.03;98585.02;1783733;80;20981;-81
2022/08/20 00:20:53;;;;;;;7.08;4.40;;;;;;;21.67;61.58;98586.23;1783914;80;21059;-82
2022/08/20 00:23:21;;;;;;;9.28;4.78;;;;;;;21.56;61.79;98587.06;1783631;80;20961;-81
2022/08/20 00:25:48;;;;;;;8.90;5.33;;;;;;;21.47;63.10;98583.80;1783358;80;21481;-81
2022/08/20 00:28:16;;;;;;;14.30;6.37;;;;;;;21.45;62.41;98583.94;1783840;80;20977;-81
2022/08/20 00:30:45;;;;;;;9.83;5.10;;;;;;;21.39;64.39;98579.94;1783862;80;21025;-81
2022/08/20 00:33:17;;;;;;;11.55;5.37;;;;;;;21.36;64.31;98581.97;1783752;80;21599;-81
2022/08/20 00:35:50;;;;;;;10.82;5.12;;;;;;;21.35;63.21;98581.63;1782616;80;21025;-81
2022/08/20 00:38:18;;;;;;;11.90;6.10;;;;;;;21.39;63.47;98579.10;1783697;80;21093;-80
2022/08/20 00:40:53;;;;;;;12.45;5.58;;;;;;;21.40;63.58;98578.95;1783684;80;21009;-80
2022/08/20 00:43:37;;;;;;;9.00;5.37;;;;;;;21.42;64.30;98583.64;1783016;80;21462;-80
2022/08/20 00:46:15;;;;;;;13.30;5.25;;;;;;;21.45;64.08;98590.55;1778523;81;21060;-80
2022/08/20 00:48:46;;;;;;;10.18;6.37;;;;;;;21.47;64.63;98575.41;1783796;80;21017;-81
2022/08/20 00:51:27;;;;;;;12.85;6.60;;;;;;;21.49;64.58;98567.33;1761470;80;21040;-80
2022/08/20 00:53:59;;;;;;;13.10;6.50;;;;;;;21.47;64.69;98567.48;1783298;80;21052;-81
2022/08/20 00:56:26;;;;;;;10.18;6.08;;;;;;;21.47;64.21;98566.61;1763442;80;21017;-81
2022/08/20 00:58:54;;;;;;;17.07;6.60;;;;;;;21.48;63.89;98562.53;1783396;80;21056;-80
2022/08/20 01:01:21;;;;;;;14.75;7.12;;;;;;;21.48;64.31;98562.53;1783733;80;21523;-81
2022/08/20 01:03:54;;;;;;;13.00;6.65;;;;;;;21.46;64.42;98568.42;1766081;80;21084;-80
2022/08/20 01:06:18;;;;;;;10.45;6.45;;;;;;;21.45;64.53;98565.43;1784572;80;21036;-80
2022/08/20 01:08:45;;;;;;;12.63;6.35;;;;;;;21.39;64.21;98563.23;1793570;80;21021;-81
2022/08/20 01:11:15;;;;;;;9.85;6.08;;;;;;;21.38;64.40;98563.70;1793685;80;20974;-81
2022/08/20 01:13:40;;;;;;;12.13;6.42;;;;;;;21.38;63.89;98568.15;1793815;80;21072;-81
2022/08/20 01:16:17;;;;;;;14.05;6.95;;;;;;;21.32;64.19;98563.34;1793991;80;22391;-80
2022/08/20 01:18:47;;;;;;;12.28;6.50;;;;;;;21.27;64.18;98563.71;1766492;80;20957;-80
2022/08/20 01:21:20;;;;;;;12.43;6.60;;;;;;;21.21;64.87;98567.66;1769969;81;20993;-80
2022/08/20 01:24:07;;;;;;;10.65;6.25;;;;;;;21.22;64.18;98564.53;1769968;80;21047;-81
2022/08/20 01:26:42;;;;;;;11.25;6.53;;;;;;;21.16;65.06;98557.92;1759206;81;21028;-81
2022/08/20 01:29:16;;;;;;;11.60;6.28;;;;;;;21.09;64.94;98550.12;1748789;81;20969;-80
2022/08/20 01:31:44;;;;;;;12.58;6.60;;;;;;;21.02;65.87;98548.41;1769954;80;21056;-80
2022/08/20 01:34:15;;;;;;;12.65;5.97;;;;;;;20.95;64.59;98553.81;1748500;81;21710;-81
2022/08/20 01:36:50;;;;;;;11.88;5.75;;;;;;;20.91;65.18;98550.19;1770023;81;21027;-82
2022/08/20 01:39:24;;;;;;;10.95;6.33;;;;;;;20.89;65.78;98555.61;1770060;81;21460;-80
2022/08/20 01:42:02;;;;;;;11.25;6.10;;;;;;;20.88;65.83;98549.12;1769559;81;21029;-80
2022/08/20 01:44:30;;;;;;;12.35;5.60;;;;;;;20.90;66.26;98539.27;1770168;80;21524;-80
2022/08/20 01:47:01;;;;;;;11.22;6.10;;;;;;;20.90;66.56;98537.46;1769906;80;20985;-81
2022/08/20 01:49:33;;;;;;;10.32;5.20;;;;;;;20.91;66.16;98544.45;1768094;80;20996;-80
2022/08/20 01:52:06;;;;;;;14.65;5.50;;;;;;;20.84;66.81;98533.97;1770076;81;21071;-81
2022/08/20 01:54:33;;;;;;;13.13;4.75;;;;;;;20.76;67.20;98529.27;1770164;81;21484;-79
2022/08/20 01:57:14;;;;;;;9.78;5.05;;;;;;;20.77;67.01;98534.06;1769741;80;21008;-80
2022/08/20 01:59:42;;;;;;;8.80;5.70;;;;;;;20.81;67.24;98542.98;1769978;80;21476;-80
2022/08/20 02:02:11;;;;;;;11.85;5.95;;;;;;;20.85;66.97;98538.31;1770172;80;21053;-81
2022/08/20 02:04:39;;;;;;;10.25;6.03;;;;;;;20.82;67.19;98538.53;1769740;81;21092;-81
2022/08/20 02:07:10;;;;;;;12.50;6.03;;;;;;;20.83;67.17;98530.95;1774512;80;21076;-81
2022/08/20 02:09:38;;;;;;;9.80;5.72;;;;;;;20.80;67.04;98533.36;1783261;80;21034;-79
2022/08/20 02:12:08;;;;;;;14.03;7.17;;;;;;;20.80;67.85;98539.13;1782858;80;21489;-80
2022/08/20 02:14:41;;;;;;;11.35;5.75;;;;;;;20.80;66.76;98536.48;1783968;80;20993;-80
2022/08/20 02:17:10;;;;;;;10.50;6.35;;;;;;;20.79;66.60;98533.01;1783263;80;21784;-81
2022/08/20 02:19:45;;;;;;;11.20;5.90;;;;;;;20.80;66.55;98540.45;1780979;80;21470;-81
2022/08/20 02:22:22;;;;;;;15.45;6.20;;;;;;;20.75;67.68;98538.16;1783905;80;20989;-81
2022/08/20 02:24:50;;;;;;;11.88;5.90;;;;;;;20.74;66.67;98537.78;1783796;80;20998;-80
2022/08/20 02:27:17;;;;;;;12.20;6.58;;;;;;;20.69;67.15;98537.77;1783937;80;21048;-81
2022/08/20 02:29:45;;;;;;;12.07;6.03;;;;;;;20.62;66.71;98538.72;1783864;80;21465;-81
2022/08/20 02:32:12;;;;;;;15.83;6.25;;;;;;;20.58;66.95;98538.56;1783691;80;20980;-80
2022/08/20 02:34:38;;;;;;;11.20;5.95;;;;;;;20.50;67.71;98536.48;1768526;80;21009;-80
2022/08/20 02:37:06;;;;;;;11.80;6.00;;;;;;;20.45;68.51;98532.02;1775714;80;21003;-80
2022/08/20 02:39:33;;;;;;;10.70;6.08;;;;;;;20.40;67.69;98537.65;1783257;80;21037;-80
2022/08/20 02:42:02;;;;;;;12.80;6.30;;;;;;;20.36;68.11;98537.52;1783337;80;21499;-80
2022/08/20 02:44:30;;;;;;;11.83;5.92;;;;;;;20.36;68.87;98546.75;1783949;80;21053;-80
2022/08/20 02:46:57;;;;;;;14.10;5.80;;;;;;;20.36;68.79;98534.88;1772093;80;21012;-80
2022/08/20 02:49:23;;;;;;;11.68;5.97;;;;;;;20.35;69.74;98537.63;1781897;80;21022;-80
2022/08/20 02:51:50;;;;;;;9.75;5.72;;;;;;;20.36;69.47;98534.88;1783014;80;21122;-81
2022/08/20 02:54:17;;;;;;;12.10;5.62;;;;;;;20.37;69.69;98529.97;1783586;80;20969;-80
2022/08/20 02:56:44;;;;;;;12.82;6.47;;;;;;;20.37;69.51;98529.97;1769942;80;21041;-80
2022/08/20 02:59:11;;;;;;;15.70;7.25;;;;;;;20.37;69.16;98528.66;1777110;80;21025;-81
2022/08/20 03:01:37;;;;;;;12.85;6.87;;;;;;;20.37;69.03;98529.97;1784337;80;21029;-80
2022/08/20 03:04:05;;;;;;;15.60;7.40;;;;;;;20.37;69.50;98531.75;1782990;80;21055;-81
2022/08/20 03:06:32;;;;;;;14.87;7.30;;;;;;;20.35;70.41;98535.84;1780778;80;21016;-80
2022/08/20 03:08:59;;;;;;;12.05;6.70;;;;;;;20.34;69.08;98532.83;1760428;81;20996;-82
2022/08/20 03:11:26;;;;;;;10.45;6.37;;;;;;;20.35;70.63;98531.89;1770623;81;21027;-80
2022/08/20 03:13:53;;;;;;;12.33;6.67;;;;;;;20.34;68.33;98535.95;1769689;80;20976;-81
2022/08/20 03:16:19;;;;;;;12.82;6.80;;;;;;;20.31;68.71;98538.32;1773687;77;21029;-82
2022/08/20 03:18:46;;;;;;;12.53;7.37;;;;;;;20.31;68.28;98543.60;1773766;80;20999;-80
2022/08/20 03:21:13;;;;;;;12.28;6.70;;;;;;;20.28;69.32;98535.09;1772831;78;20957;-81
2022/08/20 03:23:40;;;;;;;12.73;6.72;;;;;;;20.24;69.00;98543.70;1773547;77;21028;-81
2022/08/20 03:26:10;;;;;;;15.75;7.12;;;;;;;20.18;69.51;98535.76;1769800;81;21078;-81
2022/08/20 03:28:37;;;;;;;11.57;6.70;;;;;;;20.17;69.38;98541.14;1770064;80;21002;-80
2022/08/20 03:31:05;;;;;;;11.10;6.08;;;;;;;20.15;70.08;98533.81;1770271;81;20973;-80
2022/08/20 03:33:32;;;;;;;15.28;6.42;;;;;;;20.12;68.76;98535.38;1770192;80;21036;-81
2022/08/20 03:35:59;;;;;;;12.60;6.78;;;;;;;20.06;69.75;98534.02;1769684;80;20976;-81
2022/08/20 03:38:26;;;;;;;12.20;6.25;;;;;;;20.04;69.52;98539.41;1769539;80;21451;-81
2022/08/20 03:40:53;;;;;;;11.48;6.40;;;;;;;19.99;69.96;98543.33;1770259;81;21040;-80
2022/08/20 03:43:20;;;;;;;12.85;6.03;;;;;;;20.01;70.07;98543.57;1770348;81;21041;-79
2022/08/20 03:45:46;;;;;;;15.15;7.03;;;;;;;20.06;70.27;98549.86;1770226;80;21007;-80
2022/08/20 03:48:18;;;;;;;13.70;6.75;;;;;;;20.10;69.84;98547.84;1770275;81;21534;-79
2022/08/20 03:50:46;;;;;;;13.32;6.42;;;;;;;20.13;70.27;98547.12;1713313;84;21041;-80
2022/08/20 03:53:13;;;;;;;13.32;6.42;;;;;;;20.18;70.29;98542.36;1770480;80;21540;-79
2022/08/20 03:55:44;;;;;;;13.68;6.37;;;;;;;20.23;70.25;98539.37;1769911;81;21016;-80
2022/08/20 03:58:12;;;;;;;13.58;7.28;;;;;;;20.25;70.20;98539.64;1770479;80;21563;-81
2022/08/20 04:00:46;;;;;;;9.10;5.62;;;;;;;20.25;70.70;98537.45;1770186;80;21015;-81
2022/08/20 04:03:14;;;;;;;12.55;6.85;;;;;;;20.26;70.54;98522.83;1748999;81;21039;-80
2022/08/20 04:05:42;;;;;;;12.37;6.20;;;;;;;20.30;70.49;98522.63;1769657;81;21060;-80
2022/08/20 04:08:17;;;;;;;11.45;6.67;;;;;;;20.33;70.67;98527.66;1770760;80;20966;-81
2022/08/20 04:10:45;;;;;;;12.73;7.67;;;;;;;20.36;70.33;98516.88;1771246;80;21111;-80
2022/08/20 04:13:14;;;;;;;16.97;6.97;;;;;;;20.35;71.00;98531.02;1770683;80;21511;-81
2022/08/20 04:15:41;;;;;;;11.28;6.58;;;;;;;20.35;70.92;98529.25;1771120;80;21528;-80
2022/08/20 04:18:09;;;;;;;11.90;7.17;;;;;;;20.37;70.40;98535.25;1771189;80;21061;-81
2022/08/20 04:20:40;;;;;;;14.15;6.95;;;;;;;20.39;70.55;98537.30;1771208;80;21057;-81
2022/08/20 04:23:08;;;;;;;13.13;7.22;;;;;;;20.40;70.32;98537.65;1783931;80;21008;-81
2022/08/20 04:25:39;;;;;;;13.15;6.90;;;;;;;20.40;70.19;98541.61;1783877;80;21021;-80
2022/08/20 04:28:08;;;;;;;13.65;6.87;;;;;;;20.42;69.66;98533.09;1783882;80;21069;-81
2022/08/20 04:30:35;;;;;;;14.20;6.83;;;;;;;20.43;70.13;98535.25;1766082;80;21032;-80
2022/08/20 04:33:02;;;;;;;13.05;7.70;;;;;;;20.48;70.03;98528.33;1783810;80;21045;-81
2022/08/20 04:35:30;;;;;;;14.13;6.28;;;;;;;20.53;70.79;98531.45;1761954;80;21032;-81
2022/08/20 04:38:05;;;;;;;12.60;7.03;;;;;;;20.55;70.22;98535.68;1783729;80;21514;-80
2022/08/20 04:40:52;;;;;;;15.93;6.75;;;;;;;20.60;70.15;98528.75;1783739;80;20989;-79
2022/08/20 04:43:24;;;;;;;16.97;7.17;;;;;;;20.63;70.06;98529.37;1783905;80;21041;-79
2022/08/20 04:45:54;;;;;;;17.40;7.10;;;;;;;20.66;70.43;98531.76;1783872;80;21555;-81
2022/08/20 04:48:24;;;;;;;13.65;6.53;;;;;;;20.76;70.29;98535.04;1783136;80;20976;-80
2022/08/20 04:50:52;;;;;;;15.75;6.55;;;;;;;20.89;70.19;98541.53;1783634;80;20989;-81
2022/08/20 04:53:22;;;;;;;14.10;7.70;;;;;;;20.96;70.41;98536.16;1783654;80;21020;-80
2022/08/20 04:55:52;;;;;;;14.05;7.78;;;;;;;21.02;70.15;98534.36;1762030;80;21581;-80
2022/08/20 04:58:29;;;;;;;14.63;8.03;;;;;;;21.02;70.41;98534.36;1782987;80;21060;-81
2022/08/20 05:01:00;;;;;;;13.75;7.72;;;;;;;21.02;70.05;98538.33;1782315;80;20972;-81
2022/08/20 05:03:28;;;;;;;14.35;7.60;;;;;;;21.03;70.85;98535.57;1764124;80;21075;-81
2022/08/20 05:05:55;;;;;;;18.17;8.63;;;;;;;21.03;69.85;98535.57;1783408;80;21048;-80
2022/08/20 05:08:24;;;;;;;16.80;7.28;;;;;;;21.05;69.50;98540.75;1777583;80;21458;-82
2022/08/20 05:10:52;;;;;;;13.53;7.20;;;;;;;21.04;69.58;98536.41;1775893;80;20956;-80
2022/08/20 05:13:20;;;;;;;15.40;7.83;;;;;;;21.06;69.31;98537.96;1774906;80;20987;-81
2022/08/20 05:15:51;;;;;;;14.75;7.87;;;;;;;21.06;69.42;98530.03;1776097;81;21475;-82
2022/08/20 05:18:19;;;;;;;16.80;7.90;;;;;;;21.09;70.23;98526.33;1775705;80;21495;-81
2022/08/20 05:20:47;;;;;;;18.37;8.15;;;;;;;21.12;69.98;98526.08;1758473;81;21066;-81
2022/08/20 05:23:18;;;;;;;13.62;6.80;;;;;;;21.16;69.83;98524.05;1776041;80;21472;-81
2022/08/20 05:25:50;;;;;;;14.33;7.30;;;;;;;21.28;69.47;98528.86;1766635;80;20998;-82
2022/08/20 05:28:21;;;;;;;12.63;6.25;;;;;;;21.30;69.61;98524.29;1729348;82;20987;-80
2022/08/20 05:30:49;;;;;;;14.63;6.92;;;;;;;21.39;69.60;98526.22;1739667;82;20975;-82
2022/08/20 05:33:20;;;;;;;16.32;6.75;;;;;;;21.45;69.89;98523.95;1739641;82;21066;-81
2022/08/20 05:35:49;;;;;;;15.53;8.03;;;;;;;21.50;69.52;98523.58;1739732;82;21019;-82
2022/08/20 05:38:22;;;;;;;13.72;7.33;;;;;;;21.56;69.67;98516.48;1739606;82;21022;-81
2022/08/20 05:40:50;;;;;;;16.65;7.47;;;;;;;21.59;69.49;98514.92;1719028;82;20984;-81
2022/08/20 05:43:17;;;;;;;14.87;7.22;;;;;;;21.64;69.52;98507.45;1739608;82;21514;-80
2022/08/20 05:45:46;;;;;;;11.68;6.85;;;;;;;21.78;69.37;98510.80;1738465;82;21047;-80
2022/08/20 05:48:20;;;;;;;13.90;7.30;;;;;;;21.88;69.03;98509.09;1739578;82;21082;-81
2022/08/20 05:50:49;;;;;;;18.77;7.40;;;;;;;21.93;68.69;98504.27;1715244;82;21578;-81
2022/08/20 05:53:18;;;;;;;12.45;7.33;;;;;;;21.98;68.61;98500.75;1736437;82;21003;-81
2022/08/20 05:55:45;;;;;;;9.85;7.33;;;;;;;22.04;68.18;98496.31;1736477;81;21082;-82
2022/08/20 05:58:25;;;;;;;13.03;6.40;;;;;;;22.07;68.05;98500.99;1736180;81;21019;-81
2022/08/20 06:00:53;;;;;;;15.28;7.05;;;;;;;22.13;67.64;98509.26;1735919;81;21027;-81
2022/08/20 06:06:07;;;;;;;14.53;6.87;;;;;;;22.27;67.52;98505.50;1735638;81;21027;-80
2022/08/20 06:08:34;;;;;;;13.03;6.95;;;;;;;22.36;67.21;98511.38;1739663;81;21067;-81
2022/08/20 06:11:01;;;;;;;10.82;6.45;;;;;;;22.48;66.87;98506.00;1739179;81;21584;-81
2022/08/20 06:13:28;;;;;;;13.65;6.75;;;;;;;22.58;66.92;98508.23;1720472;81;21036;-80
2022/08/20 06:15:56;;;;;;;14.43;7.42;;;;;;;22.65;66.84;98501.46;1741069;81;21095;-80
2022/08/20 06:18:23;;;;;;;13.00;6.85;;;;;;;22.74;66.58;98500.69;1763858;80;21924;-80
2022/08/20 06:20:50;;;;;;;16.05;7.55;;;;;;;22.85;66.65;98493.14;1738131;82;20984;-80
2022/08/20 06:23:18;;;;;;;11.10;7.20;;;;;;;22.95;66.28;98497.17;1763994;80;21022;-80
2022/08/20 06:25:45;;;;;;;12.85;7.22;;;;;;;23.02;66.13;98497.88;1717662;82;21028;-80
2022/08/20 06:28:13;;;;;;;13.15;7.80;;;;;;;23.12;65.91;98495.27;1765123;80;21037;-81
2022/08/20 06:30:40;;;;;;;12.53;6.80;;;;;;;23.20;65.80;98499.92;1738350;82;20989;-81
2022/08/20 06:33:06;;;;;;;12.10;6.72;;;;;;;23.28;65.63;98499.22;1765085;80;21508;-81
2022/08/20 06:35:36;;;;;;;11.97;6.45;;;;;;;23.34;65.45;98496.90;1738159;82;21052;-81
2022/08/20 06:38:04;;;;;;;15.18;6.62;;;;;;;23.46;65.28;98495.45;1764223;80;20971;-81
2022/08/20 06:40:33;;;;;;;11.55;6.50;;;;;;;23.51;65.06;98507.84;1737890;82;21040;-80
2022/08/20 06:43:00;;;;;;;16.70;6.87;;;;;;;23.63;65.31;98500.98;1765382;80;21522;-81
2022/08/20 06:45:31;;;;;;;17.65;8.03;;;;;;;23.75;64.83;98502.17;1737031;82;21027;-81
2022/08/20 06:48:02;;;;;;;15.38;6.95;;;;;;;23.86;64.54;98504.74;1765439;81;21049;-80
2022/08/20 06:50:38;;;;;;;13.75;6.40;;;;;;;24.00;64.11;98499.53;1738179;82;21008;-80
2022/08/20 06:53:02;;;;;;;10.75;6.85;;;;;;;24.08;63.58;98496.18;1764585;80;21467;-81
2022/08/20 06:55:29;;;;;;;12.60;6.45;;;;;;;24.17;62.98;98504.63;1738138;82;21033;-81
2022/08/20 06:58:00;;;;;;;11.57;5.60;;;;;;;24.28;62.61;98508.48;1765473;80;20942;-81
2022/08/20 07:00:30;;;;;;;13.05;6.03;;;;;;;24.37;61.69;98503.66;1737614;82;21036;-80
2022/08/20 07:02:59;;;;;;;10.70;6.85;;;;;;;24.46;61.67;98507.78;1763950;80;20963;-81
2022/08/20 07:05:26;;;;;;;15.25;6.45;;;;;;;24.54;61.11;98506.61;1739468;82;21032;-81
2022/08/20 07:07:53;;;;;;;15.15;6.30;;;;;;;24.66;61.27;98514.77;1769402;80;21009;-81
2022/08/20 07:10:23;;;;;;;18.92;6.45;;;;;;;24.75;60.52;98511.27;1784089;80;21048;-81
2022/08/20 07:12:50;;;;;;;14.28;6.37;;;;;;;24.84;60.58;98519.37;1765697;80;21021;-81
2022/08/20 07:15:21;;;;;;;10.95;6.67;;;;;;;24.94;60.38;98521.51;1780602;80;21051;-81
2022/08/20 07:17:55;;;;;;;16.67;6.08;;;;;;;25.04;60.11;98511.68;1783207;80;21028;-81
2022/08/20 07:20:22;;;;;;;10.90;5.83;;;;;;;25.11;59.70;98507.47;1783883;80;20994;-81
2022/08/20 07:22:49;;;;;;;11.38;6.05;;;;;;;25.23;59.49;98518.80;1768670;80;21497;-80
2022/08/20 07:25:19;;;;;;;16.95;6.58;;;;;;;25.30;59.27;98513.22;1777841;80;21330;-80
2022/08/20 07:27:47;;;;;;;9.90;5.78;;;;;;;25.42;59.18;98512.54;1778566;80;21453;-80
2022/08/20 07:33:04;;;;;;;16.30;6.12;;;;;;;25.64;58.66;98499.83;1783935;80;21037;-80
2022/08/20 07:35:30;;;;;;;11.97;6.15;;;;;;;25.68;58.10;98498.05;1783727;80;21510;-79
2022/08/20 07:37:57;;;;;;;11.78;5.55;;;;;;;25.80;57.51;98505.33;1783127;80;21016;-81
2022/08/20 07:40:31;;;;;;;20.43;6.37;;;;;;;25.86;57.67;98499.41;1784107;80;20949;-80
2022/08/20 07:42:59;;;;;;;13.30;5.75;;;;;;;25.97;57.07;98496.56;1783888;80;21372;-80
2022/08/20 07:45:27;;;;;;;12.47;6.00;;;;;;;26.11;57.25;98497.03;1783944;80;20985;-80
2022/08/20 07:47:54;;;;;;;10.75;5.70;;;;;;;26.23;57.04;98498.98;1783964;80;21025;-81
2022/08/20 07:50:25;;;;;;;10.50;6.12;;;;;;;26.32;55.80;98490.05;1782815;80;22162;-80
2022/08/20 07:52:52;;;;;;;13.15;6.22;;;;;;;26.35;55.89;98491.91;1783728;80;20969;-81
2022/08/20 07:55:20;;;;;;;10.13;5.33;;;;;;;26.44;56.14;98486.17;1782961;80;21003;-81
2022/08/20 07:57:49;;;;;;;13.08;5.72;;;;;;;26.55;56.16;98492.57;1782317;80;21013;-80
2022/08/20 08:00:19;;;;;;;13.88;5.85;;;;;;;26.64;55.62;98489.52;1783862;80;20989;-81
2022/08/20 08:02:46;;;;;;;9.70;5.55;;;;;;;26.71;54.29;98490.55;1778447;80;21064;-82
2022/08/20 08:05:14;;;;;;;11.75;5.67;;;;;;;26.82;55.17;98495.28;1755071;80;21020;-82
2022/08/20 08:07:42;;;;;;;13.22;5.55;;;;;;;26.88;54.31;98496.84;1779604;80;21100;-81
2022/08/20 08:10:14;;;;;;;10.68;5.80;;;;;;;26.98;54.06;98487.41;1750895;81;21804;-82
2022/08/20 08:12:46;;;;;;;13.48;5.70;;;;;;;27.04;53.89;98489.91;1770177;80;21345;-82
2022/08/20 08:15:17;;;;;;;14.33;6.25;;;;;;;27.12;53.69;98486.81;1770846;81;21075;-82
2022/08/20 08:17:47;;;;;;;9.75;5.70;;;;;;;27.19;53.58;98485.16;1769594;80;21003;-82
2022/08/20 08:20:15;;;;;;;8.83;5.92;;;;;;;27.30;54.05;98492.09;1770167;80;21064;-82
2022/08/20 08:22:43;;;;;;;12.40;5.87;;;;;;;27.44;53.87;98489.83;1770296;81;21008;-82
2022/08/20 08:25:11;;;;;;;10.93;5.42;;;;;;;27.55;53.46;98490.84;1770543;80;21072;-82
2022/08/20 08:27:39;;;;;;;14.73;6.42;;;;;;;27.65;53.23;98492.05;1770963;80;21023;-83
2022/08/20 08:30:08;;;;;;;15.00;6.30;;;;;;;27.71;53.06;98488.22;1771318;80;21013;-82
2022/08/20 08:35:11;;;;;;;8.73;5.37;;;;;;;27.94;52.68;98491.66;1763810;80;20993;-83
2022/08/20 08:37:38;;;;;;;12.13;5.60;;;;;;;28.03;52.28;98487.98;1773825;78;20974;-81
2022/08/20 08:40:06;;;;;;;12.23;5.87;;;;;;;28.11;51.90;98487.16;1773265;78;21020;-81
2022/08/20 08:42:47;;;;;;;11.53;6.08;;;;;;;28.15;51.44;98480.48;1774088;77;21012;-81
2022/08/20 08:45:15;;;;;;;9.35;5.50;;;;;;;28.22;51.20;98481.51;1772619;81;21060;-81
2022/08/20 08:47:44;;;;;;;12.58;6.15;;;;;;;28.29;50.44;98469.64;1770540;80;21529;-81
2022/08/20 08:50:20;;;;;;;14.93;5.97;;;;;;;28.32;50.83;98467.98;1769280;81;21003;-79
2022/08/20 08:52:52;;;;;;;14.30;5.72;;;;;;;28.44;50.86;98473.83;1769113;80;21052;-81
2022/08/20 08:55:21;;;;;;;10.43;5.67;;;;;;;28.56;50.72;98463.98;1753079;80;21024;-81
2022/08/20 08:57:48;;;;;;;17.00;6.85;;;;;;;28.70;50.58;98462.97;1767504;81;21028;-81
2022/08/20 09:00:20;;;;;;;8.65;6.10;;;;;;;28.81;49.41;98458.61;1769519;80;20963;-83
2022/08/20 09:03:04;;;;;;;12.10;5.85;;;;;;;28.85;49.74;98450.57;1765767;80;21029;-82
2022/08/20 09:05:51;;;;;;;12.23;5.95;;;;;;;28.97;48.86;98451.05;1728852;82;21065;-81
2022/08/20 09:08:26;;;;;;;11.30;6.45;;;;;;;29.04;48.83;98453.34;1769293;80;21037;-81
2022/08/20 09:10:53;;;;;;;11.73;5.65;;;;;;;29.10;48.92;98447.30;1768727;80;20976;-81
2022/08/20 09:13:19;;;;;;;10.58;5.40;;;;;;;29.23;48.26;98441.45;1794069;80;21567;-81
2022/08/20 09:15:46;;;;;;;12.65;5.75;;;;;;;29.27;47.63;98444.10;1793284;80;20980;-81
2022/08/20 09:18:13;;;;;;;12.37;5.92;;;;;;;29.28;47.79;98447.09;1793599;80;20997;-82
2022/08/20 09:20:39;;;;;;;12.07;5.50;;;;;;;29.37;47.39;98447.05;1794188;80;21013;-80
2022/08/20 09:23:06;;;;;;;12.20;5.45;;;;;;;29.48;47.86;98445.33;1793392;80;20944;-82
2022/08/20 09:25:33;;;;;;;8.35;5.90;;;;;;;29.63;46.04;98438.73;1794123;80;21024;-81
2022/08/20 09:27:59;;;;;;;15.32;6.03;;;;;;;29.69;47.16;98439.37;1794048;80;20997;-82
2022/08/20 09:30:26;;;;;;;12.68;5.62;;;;;;;29.81;47.21;98443.34;1792827;80;21045;-81
2022/08/20 09:32:53;;;;;;;10.08;5.37;;;;;;;29.96;46.99;98442.56;1794106;80;21043;-80
2022/08/20 09:35:19;;;;;;;14.50;5.70;;;;;;;30.08;46.83;98456.72;1793900;80;20996;-80
2022/08/20 09:37:46;;;;;;;9.05;5.35;;;;;;;30.22;45.90;98446.20;1794074;80;21021;-81
2022/08/20 09:40:12;;;;;;;10.98;5.72;;;;;;;30.39;46.00;98445.61;1794013;80;21290;-80
2022/08/20 09:42:39;;;;;;;12.05;5.60;;;;;;;30.51;45.69;98440.13;1793460;80;21011;-81
2022/08/20 09:45:07;;;;;;;8.75;5.42;;;;;;;30.64;45.79;98435.46;1793592;80;21016;-81
2022/08/20 09:47:34;;;;;;;8.13;5.10;;;;;;;30.78;45.56;98445.88;1794332;80;21465;-82
2022/08/20 09:50:01;;;;;;;8.43;5.47;;;;;;;30.89;44.97;98440.92;1794232;80;21023;-81
2022/08/20 09:52:33;;;;;;;8.35;5.42;;;;;;;31.01;44.94;98435.93;1794131;80;21072;-82
2022/08/20 09:55:23;;;;;;;9.75;5.72;;;;;;;31.17;44.14;98434.08;1793774;80;20968;-81
2022/08/20 09:57:51;;;;;;;7.62;5.03;;;;;;;31.26;44.24;98423.56;1793360;80;20981;-81
2022/08/20 10:00:19;;;;;;;9.90;5.33;;;;;;;31.42;44.27;98423.86;1794056;80;21035;-81
2022/08/20 10:02:46;;;;;;;9.70;6.30;;;;;;;31.53;43.39;98415.33;1792748;80;20975;-80
2022/08/20 10:05:14;;;;;;;9.10;5.33;;;;;;;31.65;42.03;98411.11;1792508;80;20995;-81
2022/08/20 10:07:41;;;;;;;9.68;5.92;;;;;;;31.68;42.17;98408.58;1793840;80;21115;-82
2022/08/20 10:10:12;;;;;;;9.45;6.12;;;;;;;31.68;41.29;98403.20;1793544;80;20972;-81
2022/08/20 10:12:40;;;;;;;14.78;6.28;;;;;;;31.77;39.96;98413.31;1793490;80;21515;-80
2022/08/20 10:15:09;;;;;;;9.20;5.92;;;;;;;31.78;39.64;98415.81;1770199;80;21020;-80
2022/08/20 10:17:40;;;;;;;9.68;6.05;;;;;;;31.86;40.47;98411.65;1770130;80;21549;-81
2022/08/20 10:20:10;;;;;;;11.25;6.15;;;;;;;31.90;40.49;98415.61;1769619;81;21064;-81
2022/08/20 10:22:37;;;;;;;7.85;5.92;;;;;;;31.99;38.95;98413.62;1770328;80;21000;-82
2022/08/20 10:25:05;;;;;;;12.78;6.37;;;;;;;31.99;39.85;98408.23;1769237;80;21008;-83
2022/08/20 10:27:33;;;;;;;8.93;5.62;;;;;;;32.04;39.20;98401.81;1769312;81;20990;-81
2022/08/20 10:29:59;;;;;;;9.75;5.92;;;;;;;32.16;39.50;98402.13;1770345;81;21064;-82
2022/08/20 10:32:26;;;;;;;11.40;6.25;;;;;;;32.29;39.54;98403.59;1770272;81;20989;-82
2022/08/20 10:34:54;;;;;;;10.35;5.83;;;;;;;32.46;39.82;98404.64;1770353;80;20984;-82
2022/08/20 10:37:24;;;;;;;10.00;6.22;;;;;;;32.62;38.60;98403.02;1769685;81;21024;-82
2022/08/20 10:39:52;;;;;;;11.00;6.05;;;;;;;32.76;38.78;98396.38;1770681;80;21020;-82
2022/08/20 10:42:19;;;;;;;9.08;5.80;;;;;;;32.88;38.56;98389.39;1770700;81;21064;-82
2022/08/20 10:44:45;;;;;;;10.60;5.67;;;;;;;33.07;38.63;98385.15;1770834;80;20963;-82
2022/08/20 10:47:25;;;;;;;10.18;5.80;;;;;;;33.31;38.54;98388.36;1770774;81;21042;-83
2022/08/20 10:49:56;;;;;;;12.37;5.72;;;;;;;33.54;38.26;98375.89;1769007;81;20959;-82
2022/08/20 10:52:24;;;;;;;10.63;5.62;;;;;;;33.76;37.68;98381.45;1771675;81;21087;-82
2022/08/20 10:54:51;;;;;;;10.98;5.70;;;;;;;33.88;37.11;98383.02;1773346;80;21465;-82
2022/08/20 10:57:22;;;;;;;9.78;5.37;;;;;;;34.02;36.33;98372.58;1769791;80;21024;-82
2022/08/20 10:59:51;;;;;;;14.63;5.47;;;;;;;34.10;35.51;98368.81;1737039;81;21024;-82
2022/08/20 11:02:20;;;;;;;9.45;5.53;;;;;;;34.14;35.33;98368.77;1770631;81;21036;-83
2022/08/20 11:04:48;;;;;;;7.83;5.30;;;;;;;34.17;35.03;98360.25;1770264;80;21035;-81
2022/08/20 11:07:32;;;;;;;9.40;5.15;;;;;;;34.26;35.71;98359.01;1794035;80;21004;-82
2022/08/20 11:09:59;;;;;;;9.05;5.10;;;;;;;34.36;34.87;98349.64;1772397;80;21060;-82
2022/08/20 11:12:26;;;;;;;9.38;5.35;;;;;;;34.44;34.82;98339.97;1780687;80;21005;-83
2022/08/20 11:14:54;;;;;;;7.58;5.37;;;;;;;34.62;35.03;98336.11;1740955;81;21536;-82
2022/08/20 11:17:25;;;;;;;10.38;5.20;;;;;;;34.84;34.53;98338.56;1770199;80;21058;-82
2022/08/20 11:19:53;;;;;;;8.25;5.55;;;;;;;35.02;34.39;98327.89;1770466;80;21537;-82
2022/08/20 11:22:20;;;;;;;13.05;5.25;;;;;;;35.22;34.28;98314.84;1749117;81;21458;-82
2022/08/20 11:24:47;;;;;;;14.23;5.40;;;;;;;35.38;32.51;98323.77;1770202;80;21028;-82
2022/08/20 11:27:27;;;;;;;9.28;5.37;;;;;;;35.48;32.85;98321.12;1770736;80;21512;-82
2022/08/20 11:29:54;;;;;;;11.05;5.40;;;;;;;35.43;32.69;98319.88;1769581;80;21284;-82
2022/08/20 11:32:23;;;;;;;7.87;5.70;;;;;;;35.47;31.73;98318.11;1771636;80;21653;-82
2022/08/20 11:34:51;;;;;;;10.58;5.55;;;;;;;35.59;31.84;98319.05;1770297;81;21001;-82
2022/08/20 11:37:21;;;;;;;7.42;5.35;;;;;;;35.59;32.34;98309.59;1770419;80;21048;-82
2022/08/20 11:39:48;;;;;;;8.35;6.10;;;;;;;35.68;31.47;98312.91;1770459;81;21100;-82
2022/08/20 11:42:14;;;;;;;9.15;5.25;;;;;;;35.65;32.40;98306.01;1769319;81;21482;-82
2022/08/20 11:44:41;;;;;;;9.03;5.95;;;;;;;35.72;31.47;98305.48;1770704;81;20993;-82